createdAt,value
2023-05-12T00:00:50.672Z,12.55
2023-05-12T00:01:50.596Z,12.55
2023-05-12T00:02:50.577Z,12.57
2023-05-12T00:03:50.634Z,12.53
2023-05-12T00:04:50.375Z,12.58
2023-05-12T00:05:50.271Z,12.50
2023-05-12T00:06:50.185Z,12.50
2023-05-12T00:07:50.103Z,12.60
2023-05-12T00:08:50.031Z,12.55
2023-05-12T00:09:49.939Z,12.54
2023-05-12T00:10:49.863Z,12.53
2023-05-12T00:11:49.779Z,12.55
2023-05-12T00:12:49.702Z,12.49
2023-05-12T00:13:49.672Z,12.53
2023-05-12T00:14:49.541Z,12.49
2023-05-12T00:15:49.458Z,12.50
2023-05-12T00:16:49.528Z,12.50
2023-05-12T00:17:49.344Z,12.49
2023-05-12T00:18:49.295Z,12.45
2023-05-12T00:19:49.133Z,12.49
2023-05-12T00:20:49.052Z,12.49
2023-05-12T00:21:48.972Z,12.45
2023-05-12T00:22:48.890Z,12.49
2023-05-12T00:23:48.812Z,12.53
2023-05-12T00:24:48.729Z,12.50
2023-05-12T00:25:48.650Z,12.49
2023-05-12T00:26:48.674Z,12.46
2023-05-12T00:27:48.502Z,12.45
2023-05-12T00:28:48.409Z,12.42
2023-05-12T00:29:48.333Z,12.42
2023-05-12T00:30:48.352Z,12.45
2023-05-12T00:31:48.208Z,12.45
2023-05-12T00:32:48.103Z,12.45
2023-05-12T00:33:48.008Z,12.39
2023-05-12T00:34:47.930Z,12.45
2023-05-12T00:35:47.842Z,12.37
2023-05-12T00:36:47.771Z,12.39
2023-05-12T00:37:47.681Z,12.43
2023-05-12T00:38:47.707Z,12.40
2023-05-12T00:39:47.522Z,12.39
2023-05-12T00:40:47.546Z,12.43
2023-05-12T00:41:47.469Z,12.46
2023-05-12T00:42:47.280Z,12.42
2023-05-12T00:43:47.201Z,12.45
2023-05-12T00:44:47.126Z,12.47
2023-05-12T00:45:47.181Z,12.46
2023-05-12T00:46:46.958Z,12.49
2023-05-12T00:47:46.915Z,12.37
2023-05-12T00:48:46.795Z,12.43
2023-05-12T00:49:46.711Z,12.43
2023-05-12T00:50:46.635Z,12.45
2023-05-12T00:51:46.556Z,12.39
2023-05-12T00:52:46.478Z,12.47
2023-05-12T00:53:49.887Z,12.42
2023-05-12T00:54:46.328Z,12.47
2023-05-12T00:55:46.232Z,12.46
2023-05-12T00:56:46.164Z,12.47
2023-05-12T00:57:46.077Z,12.49
2023-05-12T00:58:45.993Z,12.49
2023-05-12T00:59:46.010Z,12.49
2023-05-12T01:00:45.833Z,12.53
2023-05-12T01:01:45.857Z,12.53
2023-05-12T01:02:45.832Z,12.50
2023-05-12T01:03:45.624Z,12.42
2023-05-12T01:04:45.607Z,12.43
2023-05-12T01:05:45.540Z,12.50
2023-05-12T01:06:45.346Z,12.46
2023-05-12T01:07:45.264Z,12.49
2023-05-12T01:08:45.271Z,12.55
2023-05-12T01:09:45.226Z,12.53
2023-05-12T01:10:45.024Z,12.57
2023-05-12T01:11:44.959Z,12.57
2023-05-12T01:12:44.860Z,12.57
2023-05-12T01:13:44.779Z,12.55
2023-05-12T01:14:44.802Z,12.54
2023-05-12T01:15:44.630Z,12.55
2023-05-12T01:16:44.671Z,12.57
2023-05-12T01:17:44.553Z,12.54
2023-05-12T01:18:44.397Z,12.49
2023-05-12T01:19:44.399Z,12.54
2023-05-12T01:20:44.217Z,12.60
2023-05-12T01:21:44.134Z,12.50
2023-05-12T01:22:44.058Z,12.50
2023-05-12T01:23:44.075Z,12.64
2023-05-12T01:24:43.904Z,12.55
2023-05-12T01:25:43.816Z,12.50
2023-05-12T01:26:43.731Z,12.54
2023-05-12T01:27:43.656Z,12.54
2023-05-12T01:28:43.567Z,12.57
2023-05-12T01:29:43.592Z,12.57
2023-05-12T01:30:43.562Z,12.55
2023-05-12T01:31:43.551Z,12.57
2023-05-12T01:32:43.277Z,12.47
2023-05-12T01:33:43.161Z,12.49
2023-05-12T01:34:43.208Z,12.50
2023-05-12T01:35:43.005Z,12.53
2023-05-12T01:36:42.921Z,12.49
2023-05-12T01:37:42.841Z,12.46
2023-05-12T01:38:42.758Z,12.57
2023-05-12T01:39:42.779Z,12.60
2023-05-12T01:40:42.606Z,12.49
2023-05-12T01:41:42.530Z,12.55
2023-05-12T01:42:42.431Z,12.49
2023-05-12T01:43:42.366Z,12.54
2023-05-12T01:44:42.379Z,12.53
2023-05-12T01:45:42.191Z,12.50
2023-05-12T01:46:42.143Z,12.47
2023-05-12T01:47:42.085Z,12.57
2023-05-12T01:48:41.947Z,12.57
2023-05-12T01:49:41.976Z,12.58
2023-05-12T01:50:41.894Z,12.67
2023-05-12T01:51:41.711Z,12.65
2023-05-12T01:52:41.628Z,12.50
2023-05-12T01:53:41.654Z,12.64
2023-05-12T01:54:41.466Z,12.64
2023-05-12T01:55:41.510Z,12.53
2023-05-12T01:56:41.330Z,12.54
2023-05-12T01:57:41.234Z,12.67
2023-05-12T01:58:41.181Z,12.60
2023-05-12T01:59:41.164Z,12.53
2023-05-12T02:00:40.983Z,12.60
2023-05-12T02:01:41.056Z,12.55
2023-05-12T02:02:42.931Z,12.49
2023-05-12T02:03:40.881Z,12.53
2023-05-12T02:04:40.656Z,12.50
2023-05-12T02:05:40.585Z,12.53
2023-05-12T02:06:40.498Z,12.57
2023-05-12T02:07:40.437Z,12.47
2023-05-12T02:08:40.334Z,12.53
2023-05-12T02:09:40.370Z,12.53
2023-05-12T02:10:40.277Z,12.58
2023-05-12T02:11:40.090Z,12.60
2023-05-12T02:12:40.019Z,12.53
2023-05-12T02:13:39.935Z,12.57
2023-05-12T02:14:39.952Z,12.55
2023-05-12T02:15:39.778Z,12.57
2023-05-12T02:16:39.755Z,12.54
2023-05-12T02:17:39.649Z,12.55
2023-05-12T02:18:39.571Z,12.50
2023-05-12T02:19:39.556Z,12.55
2023-05-12T02:20:39.372Z,12.46
2023-05-12T02:21:39.287Z,12.60
2023-05-12T02:22:39.205Z,12.47
2023-05-12T02:23:39.127Z,12.45
2023-05-12T02:24:39.149Z,12.55
2023-05-12T02:25:39.069Z,12.57
2023-05-12T02:26:38.887Z,12.54
2023-05-12T02:27:38.805Z,12.54
2023-05-12T02:28:38.732Z,12.50
2023-05-12T02:29:38.750Z,12.57
2023-05-12T02:30:38.667Z,12.49
2023-05-12T02:31:38.523Z,12.50
2023-05-12T02:32:38.448Z,12.58
2023-05-12T02:33:38.320Z,12.55
2023-05-12T02:34:38.347Z,12.54
2023-05-12T02:35:38.155Z,12.55
2023-05-12T02:36:38.169Z,12.55
2023-05-12T02:37:38.004Z,12.54
2023-05-12T02:38:37.921Z,12.54
2023-05-12T02:39:37.940Z,12.54
2023-05-12T02:40:37.756Z,12.58
2023-05-12T02:41:37.678Z,12.50
2023-05-12T02:42:37.598Z,12.55
2023-05-12T02:43:37.513Z,12.54
2023-05-12T02:44:37.541Z,12.49
2023-05-12T02:45:37.375Z,12.53
2023-05-12T02:46:37.296Z,12.47
2023-05-12T02:47:37.261Z,12.50
2023-05-12T02:48:37.108Z,12.55
2023-05-12T02:49:37.136Z,12.53
2023-05-12T02:50:37.051Z,12.53
2023-05-12T02:51:36.871Z,12.49
2023-05-12T02:52:36.796Z,12.47
2023-05-12T02:53:36.720Z,12.53
2023-05-12T02:54:36.744Z,12.53
2023-05-12T02:55:36.547Z,12.53
2023-05-12T02:56:36.473Z,12.53
2023-05-12T02:57:36.390Z,12.55
2023-05-12T02:58:36.309Z,12.47
2023-05-12T02:59:36.328Z,12.50
2023-05-12T03:00:36.147Z,12.45
2023-05-12T03:01:36.103Z,12.49
2023-05-12T03:02:36.154Z,12.47
2023-05-12T03:03:35.947Z,12.42
2023-05-12T03:04:35.823Z,12.42
2023-05-12T03:05:35.741Z,12.49
2023-05-12T03:06:35.663Z,12.46
2023-05-12T03:07:35.582Z,12.43
2023-05-12T03:08:35.501Z,12.42
2023-05-12T03:09:35.533Z,12.40
2023-05-12T03:10:35.340Z,12.40
2023-05-12T03:11:35.258Z,12.37
2023-05-12T03:12:35.194Z,12.42
2023-05-12T03:13:35.112Z,12.42
2023-05-12T03:14:35.123Z,12.37
2023-05-12T03:15:34.935Z,12.37
2023-05-12T03:16:34.886Z,12.35
2023-05-12T03:17:34.839Z,12.40
2023-05-12T03:18:34.765Z,12.43
2023-05-12T03:19:34.717Z,12.45
2023-05-12T03:20:34.530Z,12.45
2023-05-12T03:21:34.451Z,12.43
2023-05-12T03:22:34.379Z,12.40
2023-05-12T03:23:34.294Z,12.39
2023-05-12T03:24:34.312Z,12.49
2023-05-12T03:25:34.125Z,12.43
2023-05-12T03:26:34.048Z,12.45
2023-05-12T03:27:33.961Z,12.45
2023-05-12T03:28:33.892Z,12.45
2023-05-12T03:29:33.910Z,12.42
2023-05-12T03:30:33.745Z,12.42
2023-05-12T03:31:33.708Z,12.50
2023-05-12T03:32:33.765Z,12.46
2023-05-12T03:33:33.587Z,12.53
2023-05-12T03:34:33.394Z,12.53
2023-05-12T03:35:33.316Z,12.50
2023-05-12T03:36:33.238Z,12.55
2023-05-12T03:37:33.163Z,12.58
2023-05-12T03:38:33.077Z,12.53
2023-05-12T03:39:33.093Z,12.53
2023-05-12T03:40:32.910Z,12.55
2023-05-12T03:41:32.834Z,12.54
2023-05-12T03:42:32.752Z,12.55
2023-05-12T03:43:32.668Z,12.57
2023-05-12T03:44:32.696Z,12.53
2023-05-12T03:45:32.514Z,12.50
2023-05-12T03:46:32.485Z,12.53
2023-05-12T03:47:32.419Z,12.53
2023-05-12T03:48:32.298Z,12.53
2023-05-12T03:49:32.198Z,12.57
2023-05-12T03:50:32.107Z,12.53
2023-05-12T03:51:32.024Z,12.49
2023-05-12T03:52:31.946Z,12.50
2023-05-12T03:53:31.977Z,12.53
2023-05-12T03:54:31.787Z,12.55
2023-05-12T03:55:31.701Z,12.57
2023-05-12T03:56:31.621Z,12.54
2023-05-12T03:57:31.542Z,12.54
2023-05-12T03:58:31.458Z,12.60
2023-05-12T03:59:31.384Z,12.47
2023-05-12T04:00:31.404Z,12.49
2023-05-12T04:01:31.223Z,12.49
2023-05-12T04:02:31.327Z,12.47
2023-05-12T04:03:31.177Z,12.58
2023-05-12T04:04:31.089Z,12.54
2023-05-12T04:05:30.904Z,12.47
2023-05-12T04:06:30.816Z,12.49
2023-05-12T04:07:30.737Z,12.50
2023-05-12T04:08:30.657Z,12.68
2023-05-12T04:09:30.576Z,12.65
2023-05-12T04:10:30.601Z,12.65
2023-05-12T04:11:30.412Z,12.67
2023-05-12T04:12:30.340Z,12.53
2023-05-12T04:13:30.246Z,12.50
2023-05-12T04:14:41.754Z,12.64
2023-05-12T04:15:30.090Z,12.54
2023-05-12T04:16:30.035Z,12.53
2023-05-12T04:17:29.938Z,12.47
2023-05-12T04:18:29.882Z,12.53
2023-05-12T04:19:29.767Z,12.49
2023-05-12T04:20:29.790Z,12.54
2023-05-12T04:21:29.615Z,12.58
2023-05-12T04:22:29.520Z,12.58
2023-05-12T04:23:29.546Z,12.58
2023-05-12T04:24:29.363Z,12.58
2023-05-12T04:25:29.285Z,12.54
2023-05-12T04:26:29.199Z,12.60
2023-05-12T04:27:29.126Z,12.54
2023-05-12T04:28:29.038Z,12.47
2023-05-12T04:29:28.967Z,12.50
2023-05-12T04:30:28.984Z,12.54
2023-05-12T04:31:28.827Z,12.54
2023-05-12T04:32:28.874Z,12.57
2023-05-12T04:33:28.640Z,12.50
2023-05-12T04:34:28.560Z,12.53
2023-05-12T04:35:28.476Z,12.49
2023-05-12T04:36:28.401Z,12.49
2023-05-12T04:37:28.347Z,12.54
2023-05-12T04:38:28.252Z,12.55
2023-05-12T04:39:28.187Z,12.45
2023-05-12T04:40:28.184Z,12.64
2023-05-12T04:41:27.992Z,12.49
2023-05-12T04:42:27.910Z,12.53
2023-05-12T04:44:27.859Z,12.61
2023-05-12T04:45:27.676Z,12.62
2023-05-12T04:46:27.669Z,12.67
2023-05-12T04:47:27.528Z,12.72
2023-05-12T04:48:27.444Z,12.65
2023-05-12T04:49:27.345Z,12.65
2023-05-12T04:50:27.365Z,12.62
2023-05-12T04:51:27.199Z,12.73
2023-05-12T04:52:27.112Z,12.62
2023-05-12T04:53:27.145Z,12.62
2023-05-12T04:54:26.945Z,12.68
2023-05-12T04:55:26.987Z,12.61
2023-05-12T04:56:26.784Z,12.62
2023-05-12T04:57:26.701Z,12.60
2023-05-12T04:58:26.624Z,12.67
2023-05-12T04:59:26.542Z,12.70
2023-05-12T05:00:26.565Z,12.70
2023-05-12T05:01:26.402Z,12.64
2023-05-12T05:02:26.454Z,12.65
2023-05-12T05:03:26.420Z,12.67
2023-05-12T05:04:26.242Z,12.64
2023-05-12T05:05:26.161Z,12.61
2023-05-12T05:06:25.976Z,12.61
2023-05-12T05:07:25.896Z,12.58
2023-05-12T05:08:25.819Z,12.65
2023-05-12T05:09:25.736Z,12.73
2023-05-12T05:10:25.762Z,12.64
2023-05-12T05:11:25.576Z,12.64
2023-05-12T05:12:25.493Z,12.61
2023-05-12T05:13:25.405Z,12.65
2023-05-12T05:14:25.438Z,12.70
2023-05-12T05:15:25.361Z,12.72
2023-05-12T05:16:25.183Z,12.73
2023-05-12T05:17:25.106Z,12.73
2023-05-12T05:18:25.052Z,12.65
2023-05-12T05:19:36.435Z,12.72
2023-05-12T05:20:28.957Z,12.64
2023-05-12T05:21:24.774Z,12.62
2023-05-12T05:22:24.750Z,12.70
2023-05-12T05:23:24.616Z,12.61
2023-05-12T05:24:24.545Z,12.65
2023-05-12T05:25:24.448Z,12.75
2023-05-12T05:26:24.368Z,12.68
2023-05-12T05:27:24.287Z,12.61
2023-05-12T05:28:24.211Z,12.64
2023-05-12T05:29:24.118Z,12.70
2023-05-12T05:30:24.149Z,12.64
2023-05-12T05:31:24.028Z,12.65
2023-05-12T05:32:24.012Z,12.67
2023-05-12T05:33:23.805Z,12.70
2023-05-12T05:34:23.952Z,12.60
2023-05-12T05:35:23.745Z,12.64
2023-05-12T05:36:23.560Z,12.70
2023-05-12T05:37:23.486Z,12.67
2023-05-12T05:38:23.404Z,12.64
2023-05-12T05:39:23.311Z,12.70
2023-05-12T05:40:23.343Z,12.62
2023-05-12T05:41:23.169Z,12.67
2023-05-12T05:42:23.076Z,12.64
2023-05-12T05:43:23.049Z,12.67
2023-05-12T05:44:23.022Z,12.61
2023-05-12T05:45:22.940Z,12.72
2023-05-12T05:46:22.795Z,12.70
2023-05-12T05:47:22.709Z,12.70
2023-05-12T05:48:22.615Z,12.60
2023-05-12T05:49:22.510Z,12.67
2023-05-12T05:50:22.528Z,12.67
2023-05-12T05:51:22.348Z,12.70
2023-05-12T05:52:22.272Z,12.61
2023-05-12T05:53:22.861Z,12.70
2023-05-12T05:54:22.209Z,12.65
2023-05-12T05:55:22.275Z,12.64
2023-05-12T05:56:21.997Z,12.65
2023-05-12T05:57:21.858Z,12.65
2023-05-12T05:58:21.781Z,12.68
2023-05-12T05:59:21.698Z,12.72
2023-05-12T06:00:21.741Z,12.73
2023-05-12T06:01:21.540Z,12.80
2023-05-12T06:02:21.654Z,12.79
2023-05-12T06:03:21.549Z,12.82
2023-05-12T06:04:21.404Z,12.86
2023-05-12T06:05:21.643Z,12.83
2023-05-12T06:06:21.149Z,12.90
2023-05-12T06:07:22.194Z,12.95
2023-05-12T06:08:20.978Z,12.95
2023-05-12T06:09:20.895Z,12.97
2023-05-12T06:10:21.096Z,12.94
2023-05-12T06:11:20.728Z,13.01
2023-05-12T06:12:20.672Z,12.95
2023-05-12T06:13:20.591Z,13.08
2023-05-12T06:14:20.596Z,13.08
2023-05-12T06:15:20.774Z,13.08
2023-05-12T06:16:20.339Z,13.03
2023-05-12T06:17:20.269Z,13.11
2023-05-12T06:18:20.182Z,13.09
2023-05-12T06:19:20.087Z,13.05
2023-05-12T06:20:20.149Z,13.05
2023-05-12T06:21:19.939Z,13.12
2023-05-12T06:22:19.847Z,13.11
2023-05-12T06:23:19.767Z,13.12
2023-05-12T06:24:19.788Z,13.13
2023-05-12T06:25:19.813Z,13.08
2023-05-12T06:26:19.527Z,13.08
2023-05-12T06:27:19.444Z,13.09
2023-05-12T06:28:19.368Z,13.18
2023-05-12T06:29:19.283Z,13.13
2023-05-12T06:30:19.314Z,13.22
2023-05-12T06:31:19.181Z,13.12
2023-05-12T06:32:19.222Z,13.13
2023-05-12T06:33:18.974Z,13.11
2023-05-12T06:34:18.990Z,13.20
2023-05-12T06:35:19.299Z,13.12
2023-05-12T06:36:18.728Z,13.15
2023-05-12T06:37:18.653Z,13.20
2023-05-12T06:38:18.566Z,13.08
2023-05-12T06:39:18.486Z,13.11
2023-05-12T06:40:18.419Z,13.11
2023-05-12T06:41:18.334Z,13.23
2023-05-12T06:42:18.245Z,13.19
2023-05-12T06:43:18.168Z,13.18
2023-05-12T06:44:18.260Z,13.22
2023-05-12T06:45:18.140Z,13.11
2023-05-12T06:46:17.960Z,13.13
2023-05-12T06:47:17.847Z,13.20
2023-05-12T06:48:17.777Z,13.09
2023-05-12T06:49:17.682Z,13.09
2023-05-12T06:50:17.608Z,13.16
2023-05-12T06:51:17.527Z,13.08
2023-05-12T06:52:17.452Z,13.13
2023-05-12T06:53:17.363Z,13.15
2023-05-12T06:54:17.393Z,13.12
2023-05-12T06:55:17.351Z,13.09
2023-05-12T06:56:17.125Z,13.23
2023-05-12T06:57:17.043Z,13.13
2023-05-12T06:58:16.963Z,13.13
2023-05-12T06:59:16.884Z,13.19
2023-05-12T07:00:16.947Z,13.23
2023-05-12T07:01:16.822Z,13.18
2023-05-12T07:02:16.749Z,13.16
2023-05-12T07:03:16.752Z,13.18
2023-05-12T07:04:16.609Z,13.23
2023-05-12T07:05:16.404Z,13.23
2023-05-12T07:06:16.496Z,13.25
2023-05-12T07:07:16.250Z,13.23
2023-05-12T07:08:16.157Z,13.23
2023-05-12T07:09:16.074Z,13.28
2023-05-12T07:10:16.002Z,13.35
2023-05-12T07:11:16.024Z,13.23
2023-05-12T07:12:15.865Z,13.35
2023-05-12T07:13:15.771Z,13.37
2023-05-12T07:14:15.783Z,13.39
2023-05-12T07:15:15.609Z,13.38
2023-05-12T07:16:15.754Z,13.39
2023-05-12T07:17:15.440Z,13.33
2023-05-12T07:18:15.359Z,13.31
2023-05-12T07:19:15.350Z,13.33
2023-05-12T07:20:15.198Z,13.33
2023-05-12T07:21:15.218Z,13.41
2023-05-12T07:22:15.034Z,13.39
2023-05-12T07:23:14.960Z,13.46
2023-05-12T07:24:14.878Z,13.47
2023-05-12T07:25:14.824Z,13.39
2023-05-12T07:26:14.711Z,13.41
2023-05-12T07:27:14.632Z,13.42
2023-05-12T07:28:14.554Z,13.41
2023-05-12T07:29:14.493Z,13.42
2023-05-12T07:30:14.396Z,13.41
2023-05-12T07:31:14.377Z,13.41
2023-05-12T07:32:14.249Z,13.37
2023-05-12T07:33:14.186Z,13.42
2023-05-12T07:34:14.176Z,13.47
2023-05-12T07:35:14.000Z,13.44
2023-05-12T07:36:13.927Z,13.39
2023-05-12T07:37:13.838Z,13.44
2023-05-12T07:38:13.756Z,13.44
2023-05-12T07:39:13.672Z,13.50
2023-05-12T07:40:13.595Z,13.46
2023-05-12T07:41:13.518Z,13.53
2023-05-12T07:42:13.436Z,13.53
2023-05-12T07:43:13.481Z,13.54
2023-05-12T07:44:13.281Z,13.52
2023-05-12T07:45:13.211Z,13.60
2023-05-12T07:46:13.124Z,13.53
2023-05-12T07:47:13.083Z,13.67
2023-05-12T07:48:13.118Z,13.67
2023-05-12T07:49:12.882Z,13.67
2023-05-12T07:50:12.804Z,13.70
2023-05-12T07:51:12.719Z,13.65
2023-05-12T07:52:12.639Z,13.60
2023-05-12T07:53:12.560Z,13.54
2023-05-12T07:54:12.494Z,13.57
2023-05-12T07:55:12.398Z,13.54
2023-05-12T07:56:12.313Z,13.57
2023-05-12T07:57:12.233Z,13.59
2023-05-12T07:58:12.157Z,13.62
2023-05-12T07:59:12.076Z,13.56
2023-05-12T08:00:11.995Z,13.60
2023-05-12T08:01:11.917Z,13.59
2023-05-12T08:02:11.892Z,13.68
2023-05-12T08:03:11.822Z,13.71
2023-05-12T08:04:11.824Z,13.75
2023-05-12T08:05:11.596Z,13.71
2023-05-12T08:06:11.520Z,13.78
2023-05-12T08:07:11.444Z,13.81
2023-05-12T08:08:11.354Z,13.75
2023-05-12T08:09:11.279Z,13.78
2023-05-12T08:10:11.195Z,13.79
2023-05-12T08:11:11.134Z,13.75
2023-05-12T08:12:11.036Z,13.79
2023-05-12T08:13:10.953Z,13.81
2023-05-12T08:14:10.884Z,13.87
2023-05-12T08:15:10.803Z,13.81
2023-05-12T08:16:10.717Z,13.79
2023-05-12T08:17:10.666Z,13.81
2023-05-12T08:18:10.605Z,13.81
2023-05-12T08:19:10.579Z,13.81
2023-05-12T08:20:10.435Z,13.90
2023-05-12T08:21:10.314Z,13.95
2023-05-12T08:22:10.233Z,14.07
2023-05-12T08:23:10.162Z,14.04
2023-05-12T08:24:10.076Z,14.11
2023-05-12T08:25:12.452Z,14.03
2023-05-12T08:26:09.917Z,14.04
2023-05-12T08:27:09.836Z,14.04
2023-05-12T08:28:09.756Z,14.14
2023-05-12T08:29:09.683Z,14.07
2023-05-12T08:30:09.605Z,14.03
2023-05-12T08:31:09.608Z,14.10
2023-05-12T08:32:09.452Z,14.05
2023-05-12T08:33:09.388Z,14.04
2023-05-12T08:34:11.091Z,14.05
2023-05-12T08:35:09.223Z,14.07
2023-05-12T08:36:09.135Z,14.08
2023-05-12T08:37:09.046Z,14.11
2023-05-12T08:38:08.965Z,14.11
2023-05-12T08:39:08.878Z,14.28
2023-05-12T08:40:08.809Z,14.26
2023-05-12T08:41:08.754Z,14.22
2023-05-12T08:42:08.657Z,14.28
2023-05-12T08:43:08.566Z,14.23
2023-05-12T08:44:08.496Z,14.26
2023-05-12T08:45:08.410Z,14.30
2023-05-12T08:46:08.353Z,14.28
2023-05-12T08:47:08.249Z,14.30
2023-05-12T08:48:08.209Z,14.32
2023-05-12T08:49:08.087Z,14.32
2023-05-12T08:50:08.007Z,14.29
2023-05-12T08:51:07.934Z,14.26
2023-05-12T08:52:07.934Z,14.25
2023-05-12T08:53:07.768Z,14.30
2023-05-12T08:54:07.692Z,14.30
2023-05-12T08:55:07.610Z,14.35
2023-05-12T08:57:09.596Z,14.50
2023-05-12T08:58:09.069Z,14.40
2023-05-12T08:59:07.295Z,14.43
2023-05-12T09:00:07.209Z,14.37
2023-05-12T09:01:07.172Z,14.32
2023-05-12T09:02:07.142Z,14.45
2023-05-12T09:03:07.022Z,14.51
2023-05-12T09:04:06.917Z,14.51
2023-05-12T09:05:06.815Z,14.54
2023-05-12T09:06:06.773Z,14.48
2023-05-12T09:07:06.661Z,14.50
2023-05-12T09:08:06.612Z,14.44
2023-05-12T09:09:06.511Z,14.48
2023-05-12T09:10:06.434Z,14.47
2023-05-12T09:11:06.384Z,14.50
2023-05-12T09:12:06.268Z,14.43
2023-05-12T09:13:06.192Z,14.48
2023-05-12T09:14:06.101Z,14.41
2023-05-12T09:15:06.025Z,14.47
2023-05-12T09:16:05.994Z,14.45
2023-05-12T09:17:05.882Z,14.50
2023-05-12T09:18:05.884Z,14.48
2023-05-12T09:19:07.223Z,14.50
2023-05-12T09:20:05.633Z,14.55
2023-05-12T09:21:05.551Z,14.54
2023-05-12T09:22:05.535Z,14.53
2023-05-12T09:23:05.429Z,14.54
2023-05-12T09:24:05.475Z,14.48
2023-05-12T09:25:05.241Z,14.59
2023-05-12T09:26:05.158Z,14.51
2023-05-12T09:27:05.093Z,14.45
2023-05-12T09:28:05.005Z,14.51
2023-05-12T09:29:04.923Z,14.55
2023-05-12T09:30:04.836Z,14.47
2023-05-12T09:31:04.795Z,14.51
2023-05-12T09:32:04.724Z,14.44
2023-05-12T09:33:04.660Z,14.45
2023-05-12T09:34:04.530Z,14.48
2023-05-12T09:35:04.446Z,14.48
2023-05-12T09:36:04.365Z,14.36
2023-05-12T09:37:04.280Z,14.45
2023-05-12T09:38:04.219Z,14.44
2023-05-12T09:39:04.133Z,14.50
2023-05-12T09:40:04.133Z,14.62
2023-05-12T09:41:03.971Z,14.62
2023-05-12T09:42:03.930Z,14.73
2023-05-12T09:43:03.806Z,14.77
2023-05-12T09:44:03.733Z,14.81
2023-05-12T09:45:03.653Z,14.79
2023-05-12T09:46:03.575Z,14.86
2023-05-12T09:47:03.495Z,14.73
2023-05-12T09:48:03.454Z,14.79
2023-05-12T09:49:03.334Z,14.82
2023-05-12T09:50:03.255Z,14.78
2023-05-12T09:51:03.199Z,14.89
2023-05-12T09:52:03.097Z,15.00
2023-05-12T09:53:03.023Z,15.04
2023-05-12T09:54:03.327Z,15.04
2023-05-12T09:55:02.878Z,15.18
2023-05-12T09:56:02.845Z,15.11
2023-05-12T09:57:02.884Z,15.14
2023-05-12T09:58:03.203Z,15.06
2023-05-12T09:59:02.553Z,15.21
2023-05-12T10:00:02.505Z,15.19
2023-05-12T10:02:02.465Z,15.25
2023-05-12T10:03:02.263Z,15.19
2023-05-12T10:04:02.153Z,15.28
2023-05-12T10:05:02.144Z,15.24
2023-05-12T10:06:01.995Z,15.40
2023-05-12T10:07:01.912Z,15.35
2023-05-12T10:08:01.833Z,15.43
2023-05-12T10:09:01.750Z,15.44
2023-05-12T10:10:01.688Z,15.47
2023-05-12T10:11:01.598Z,15.47
2023-05-12T10:12:01.621Z,15.43
2023-05-12T10:13:01.441Z,15.47
2023-05-12T10:14:01.363Z,15.49
2023-05-12T10:15:01.293Z,15.43
2023-05-12T10:16:01.210Z,15.46
2023-05-12T10:17:01.220Z,15.55
2023-05-12T10:18:01.202Z,15.67
2023-05-12T10:19:01.147Z,15.68
2023-05-12T10:20:00.899Z,15.77
2023-05-12T10:21:00.834Z,15.84
2023-05-12T10:22:00.726Z,15.83
2023-05-12T10:23:00.663Z,15.88
2023-05-12T10:24:00.681Z,15.94
2023-05-12T10:25:00.500Z,15.98
2023-05-12T10:26:00.418Z,16.04
2023-05-12T10:27:00.340Z,16.12
2023-05-12T10:28:00.299Z,16.12
2023-05-12T10:29:00.191Z,16.09
2023-05-12T10:30:00.150Z,16.10
2023-05-12T10:31:00.086Z,15.94
2023-05-12T10:31:59.958Z,15.95
2023-05-12T10:32:59.921Z,15.91
2023-05-12T10:33:59.800Z,15.82
2023-05-12T10:35:02.247Z,15.72
2023-05-12T10:35:59.654Z,15.67
2023-05-12T10:36:59.564Z,15.64
2023-05-12T10:37:59.493Z,15.75
2023-05-12T10:38:59.445Z,15.68
2023-05-12T10:39:59.359Z,15.64
2023-05-12T10:40:59.251Z,15.59
2023-05-12T10:41:59.175Z,15.61
2023-05-12T10:42:59.104Z,15.51
2023-05-12T10:43:59.081Z,15.57
2023-05-12T10:44:58.940Z,15.55
2023-05-12T10:45:58.920Z,15.58
2023-05-12T10:46:58.790Z,15.51
2023-05-12T10:47:58.739Z,15.44
2023-05-12T10:48:58.627Z,15.40
2023-05-12T10:49:58.567Z,15.36
2023-05-12T10:50:58.468Z,15.49
2023-05-12T10:51:58.397Z,15.40
2023-05-12T10:52:58.316Z,15.43
2023-05-12T10:53:58.262Z,15.44
2023-05-12T10:54:58.202Z,15.46
2023-05-12T10:55:58.273Z,15.49
2023-05-12T10:56:58.128Z,15.52
2023-05-12T10:57:58.246Z,15.62
2023-05-12T10:58:58.260Z,15.64
2023-05-12T10:59:58.668Z,15.62
2023-05-12T11:00:58.056Z,15.68
2023-05-12T11:01:57.784Z,15.68
2023-05-12T11:03:01.232Z,15.72
2023-05-12T11:03:57.564Z,15.61
2023-05-12T11:04:57.962Z,15.64
2023-05-12T11:05:57.627Z,15.68
2023-05-12T11:06:57.687Z,15.67
2023-05-12T11:07:57.278Z,15.61
2023-05-12T11:08:57.304Z,15.59
2023-05-12T11:09:58.957Z,15.43
2023-05-12T11:10:56.925Z,15.44
2023-05-12T11:11:56.896Z,15.46
2023-05-12T11:12:56.751Z,15.46
2023-05-12T11:13:56.669Z,15.47
2023-05-12T11:14:56.595Z,15.49
2023-05-12T11:15:56.599Z,15.47
2023-05-12T11:16:56.441Z,15.43
2023-05-12T11:17:56.415Z,15.39
2023-05-12T11:18:56.336Z,15.44
2023-05-12T11:19:56.214Z,15.49
2023-05-12T11:20:56.127Z,15.44
2023-05-12T11:21:56.051Z,15.47
2023-05-12T11:22:55.979Z,15.43
2023-05-12T11:23:55.885Z,15.44
2023-05-12T11:24:55.883Z,15.46
2023-05-12T11:25:55.784Z,15.51
2023-05-12T11:26:55.645Z,15.33
2023-05-12T11:27:55.569Z,15.27
2023-05-12T11:28:55.494Z,15.15
2023-05-12T11:29:55.515Z,15.09
2023-05-12T11:30:55.845Z,15.00
2023-05-12T11:31:55.368Z,14.89
2023-05-12T11:32:55.223Z,14.86
2023-05-12T11:34:08.300Z,14.73
2023-05-12T11:34:55.026Z,14.66
2023-05-12T11:35:54.935Z,14.63
2023-05-12T11:36:54.857Z,14.66
2023-05-12T11:37:54.781Z,14.62
2023-05-12T11:38:54.733Z,14.68
2023-05-12T11:39:54.629Z,14.63
2023-05-12T11:40:54.543Z,14.65
2023-05-12T11:42:02.170Z,14.60
2023-05-12T11:42:54.388Z,14.63
2023-05-12T11:43:54.312Z,14.53
2023-05-12T11:44:54.231Z,14.62
2023-05-12T11:45:54.162Z,14.66
2023-05-12T11:46:54.073Z,14.79
2023-05-12T11:47:54.063Z,14.78
2023-05-12T11:48:53.918Z,14.73
2023-05-12T11:49:53.828Z,14.78
2023-05-12T11:50:53.752Z,14.85
2023-05-12T11:51:53.776Z,14.88
2023-05-12T11:52:53.696Z,14.94
2023-05-12T11:53:53.617Z,15.00
2023-05-12T11:54:53.464Z,15.06
2023-05-12T11:55:53.371Z,15.09
2023-05-12T11:56:53.277Z,15.14
2023-05-12T11:57:53.200Z,15.18
2023-05-12T11:58:53.138Z,15.10
2023-05-12T11:59:53.041Z,15.28
2023-05-12T12:00:52.973Z,15.31
2023-05-12T12:01:52.886Z,15.35
2023-05-12T12:02:52.888Z,15.44
2023-05-12T12:03:53.010Z,15.43
2023-05-12T12:04:52.648Z,15.44
2023-05-12T12:05:52.564Z,15.43
2023-05-12T12:06:52.488Z,15.47
2023-05-12T12:07:52.411Z,15.36
2023-05-12T12:08:52.337Z,15.33
2023-05-12T12:09:52.248Z,15.28
2023-05-12T12:10:52.177Z,15.11
2023-05-12T12:11:52.096Z,15.11
2023-05-12T12:12:52.017Z,15.15
2023-05-12T12:13:51.933Z,15.14
2023-05-12T12:14:51.884Z,15.07
2023-05-12T12:15:51.814Z,15.00
2023-05-12T12:16:51.719Z,15.04
2023-05-12T12:17:51.786Z,14.97
2023-05-12T12:18:51.722Z,14.86
2023-05-12T12:19:51.493Z,14.89
2023-05-12T12:20:51.386Z,14.89
2023-05-12T12:21:51.308Z,14.86
2023-05-12T12:22:51.228Z,15.00
2023-05-12T12:23:51.853Z,15.03
2023-05-12T12:24:51.075Z,14.97
2023-05-12T12:25:51.008Z,15.15
2023-05-12T12:26:50.910Z,15.14
2023-05-12T12:27:50.833Z,15.24
2023-05-12T12:28:50.753Z,15.11
2023-05-12T12:29:50.671Z,15.17
2023-05-12T12:30:50.595Z,15.17
2023-05-12T12:31:50.578Z,15.14
2023-05-12T12:32:50.478Z,15.09
2023-05-12T12:33:50.352Z,15.04
2023-05-12T12:34:50.278Z,14.92
2023-05-12T12:35:50.205Z,14.89
2023-05-12T12:36:50.121Z,14.89
2023-05-12T12:37:50.041Z,14.91
2023-05-12T12:38:49.974Z,14.85
2023-05-12T12:39:49.888Z,14.79
2023-05-12T12:40:49.803Z,14.85
2023-05-12T12:41:49.900Z,14.81
2023-05-12T12:42:49.651Z,14.77
2023-05-12T12:43:49.566Z,14.82
2023-05-12T12:44:49.488Z,14.82
2023-05-12T12:45:49.411Z,14.86
2023-05-12T12:46:49.356Z,14.84
2023-05-12T12:47:49.332Z,14.89
2023-05-12T12:48:49.171Z,14.86
2023-05-12T12:49:49.094Z,14.86
2023-05-12T12:50:49.018Z,14.86
2023-05-12T12:51:48.941Z,14.88
2023-05-12T12:52:48.858Z,14.92
2023-05-12T12:53:48.778Z,14.85
2023-05-12T12:54:48.696Z,14.92